createdAt,value
2023-01-25T00:00:53.802Z,21.47
2023-01-25T00:03:21.448Z,27.87
2023-01-25T00:05:49.056Z,22.50
2023-01-25T00:08:16.584Z,21.43
2023-01-25T00:10:44.022Z,22.10
2023-01-25T00:13:11.579Z,22.60
2023-01-25T00:15:39.084Z,25.43
2023-01-25T00:18:06.642Z,22.17
2023-01-25T00:20:34.140Z,21.83
2023-01-25T00:23:01.649Z,22.63
2023-01-25T00:25:29.128Z,24.07
2023-01-25T00:27:56.632Z,25.20
2023-01-25T00:30:24.132Z,24.00
2023-01-25T00:32:58.779Z,24.20
2023-01-25T00:35:30.432Z,22.47
2023-01-25T00:37:57.973Z,22.87
2023-01-25T00:40:25.484Z,23.87
2023-01-25T00:42:53.039Z,24.47
2023-01-25T00:45:20.598Z,24.90
2023-01-25T00:47:48.146Z,28.43
2023-01-25T00:50:15.832Z,25.37
2023-01-25T00:52:43.372Z,25.27
2023-01-25T00:55:10.874Z,25.10
2023-01-25T00:57:38.335Z,22.30
2023-01-25T01:00:06.166Z,22.00
2023-01-25T01:02:33.714Z,19.40
2023-01-25T01:05:01.260Z,26.47
2023-01-25T01:07:28.883Z,20.83
2023-01-25T01:09:56.376Z,23.17
2023-01-25T01:12:23.875Z,24.30
2023-01-25T01:14:51.413Z,21.17
2023-01-25T01:17:18.962Z,27.17
2023-01-25T01:19:46.442Z,24.47
2023-01-25T01:22:14.144Z,24.90
2023-01-25T01:24:41.663Z,24.87
2023-01-25T01:27:09.226Z,25.67
2023-01-25T01:29:36.677Z,24.90
2023-01-25T01:32:04.269Z,24.77
2023-01-25T01:34:31.865Z,20.33
2023-01-25T01:36:59.507Z,22.40
2023-01-25T01:39:27.080Z,25.00
2023-01-25T01:41:54.641Z,23.33
2023-01-25T01:44:23.035Z,23.77
2023-01-25T01:46:55.521Z,26.40
2023-01-25T01:49:25.115Z,26.13
2023-01-25T01:52:04.003Z,24.80
2023-01-25T01:54:35.139Z,25.90
2023-01-25T01:57:02.648Z,29.90
2023-01-25T01:59:33.889Z,25.73
2023-01-25T02:02:01.499Z,28.50
2023-01-25T02:04:29.169Z,28.83
2023-01-25T02:07:00.460Z,30.13
2023-01-25T02:09:32.265Z,30.83
2023-01-25T02:12:00.526Z,28.23
2023-01-25T02:14:29.740Z,30.87
2023-01-25T02:16:57.611Z,28.23
2023-01-25T02:19:48.079Z,26.23
2023-01-25T02:22:16.799Z,25.80
2023-01-25T02:24:47.996Z,26.70
2023-01-25T02:27:15.580Z,27.90
2023-01-25T02:29:43.318Z,26.47
2023-01-25T02:32:11.222Z,25.73
2023-01-25T02:34:38.735Z,28.13
2023-01-25T02:37:06.336Z,24.43
2023-01-25T02:39:33.963Z,27.57
2023-01-25T02:42:01.493Z,25.27
2023-01-25T02:44:30.530Z,24.90
2023-01-25T02:46:59.058Z,28.47
2023-01-25T02:49:26.530Z,26.87
2023-01-25T02:51:55.081Z,27.73
2023-01-25T02:54:22.764Z,26.27
2023-01-25T02:56:50.359Z,24.50
2023-01-25T02:59:17.907Z,25.13
2023-01-25T03:01:45.878Z,29.27
2023-01-25T03:04:13.568Z,29.17
2023-01-25T03:06:41.238Z,29.97
2023-01-25T03:09:09.880Z,27.70
2023-01-25T03:11:37.465Z,29.13
2023-01-25T03:14:05.001Z,23.93
2023-01-25T03:16:32.777Z,28.10
2023-01-25T03:19:00.367Z,36.30
2023-01-25T03:21:28.001Z,26.93
2023-01-25T03:23:56.835Z,26.13
2023-01-25T03:26:24.707Z,25.20
2023-01-25T03:28:52.234Z,26.50
2023-01-25T03:31:19.851Z,26.80
2023-01-25T03:33:47.460Z,26.00
2023-01-25T03:36:15.033Z,25.87
2023-01-25T03:38:42.525Z,28.33
2023-01-25T03:41:10.331Z,28.13
2023-01-25T03:43:37.788Z,28.60
2023-01-25T03:46:05.405Z,31.23
2023-01-25T03:48:32.902Z,25.87
2023-01-25T03:51:00.401Z,26.20
2023-01-25T03:53:28.952Z,30.20
2023-01-25T03:55:58.794Z,27.20
2023-01-25T03:58:26.593Z,28.37
2023-01-25T04:00:57.518Z,27.43
2023-01-25T04:03:25.562Z,27.27
2023-01-25T04:05:54.131Z,28.60
2023-01-25T04:08:22.100Z,26.73
2023-01-25T04:10:53.164Z,30.47
2023-01-25T04:13:21.485Z,30.53
2023-01-25T04:15:49.283Z,29.73
2023-01-25T04:18:17.153Z,30.90
2023-01-25T04:20:44.797Z,28.80
2023-01-25T04:23:12.509Z,29.17
2023-01-25T04:25:40.180Z,32.53
2023-01-25T04:28:07.731Z,31.13
2023-01-25T04:30:35.223Z,34.27
2023-01-25T04:33:03.506Z,29.00
2023-01-25T04:35:31.010Z,30.07
2023-01-25T04:37:59.232Z,26.40
2023-01-25T04:40:26.993Z,31.87
2023-01-25T04:42:54.605Z,26.43
2023-01-25T04:45:22.376Z,26.67
2023-01-25T04:47:51.257Z,32.40
2023-01-25T04:50:18.779Z,29.73
2023-01-25T04:52:46.391Z,26.23
2023-01-25T04:55:13.957Z,33.10
2023-01-25T04:57:41.764Z,28.23
2023-01-25T05:00:09.657Z,27.37
2023-01-25T05:02:37.459Z,26.73
2023-01-25T05:05:05.075Z,28.57
2023-01-25T05:07:32.676Z,27.47
2023-01-25T05:10:00.291Z,32.37
2023-01-25T05:12:28.084Z,32.03
2023-01-25T05:14:55.650Z,27.87
2023-01-25T05:17:23.258Z,28.27
2023-01-25T05:19:50.787Z,29.30
2023-01-25T05:22:19.307Z,29.03
2023-01-25T05:24:47.629Z,29.37
2023-01-25T05:27:17.680Z,30.13
2023-01-25T05:29:46.356Z,29.27
2023-01-25T05:32:15.639Z,28.57
2023-01-25T05:34:43.636Z,26.73
2023-01-25T05:37:12.182Z,29.80
2023-01-25T05:39:39.819Z,27.10
2023-01-25T05:42:14.554Z,36.33
2023-01-25T05:44:44.806Z,34.50
2023-01-25T05:47:14.903Z,36.43
2023-01-25T05:49:42.395Z,34.03
2023-01-25T05:52:16.743Z,33.73
2023-01-25T05:54:44.348Z,31.93
2023-01-25T05:57:11.836Z,34.07
2023-01-25T05:59:39.434Z,34.97
2023-01-25T06:02:07.123Z,32.47
2023-01-25T06:04:34.659Z,31.60
2023-01-25T06:07:02.120Z,34.47
2023-01-25T06:09:29.647Z,35.20
2023-01-25T06:11:57.169Z,33.43
2023-01-25T06:14:24.854Z,34.67
2023-01-25T06:16:52.332Z,33.50
2023-01-25T06:19:19.847Z,34.03
2023-01-25T06:21:47.330Z,33.77
2023-01-25T06:24:14.893Z,34.67
2023-01-25T06:26:42.351Z,35.87
2023-01-25T06:29:09.834Z,31.73
2023-01-25T06:31:37.398Z,31.13
2023-01-25T06:34:05.030Z,32.30
2023-01-25T06:36:33.167Z,32.63
2023-01-25T06:39:00.663Z,34.63
2023-01-25T06:41:28.172Z,31.20
2023-01-25T06:43:55.625Z,30.47
2023-01-25T06:46:23.180Z,33.40
2023-01-25T06:48:50.891Z,34.10
2023-01-25T06:51:18.956Z,34.37
2023-01-25T06:53:46.754Z,35.93
2023-01-25T06:56:15.925Z,34.67
2023-01-25T06:58:43.768Z,36.03
2023-01-25T07:01:13.853Z,37.07
2023-01-25T07:03:41.756Z,39.70
2023-01-25T07:06:10.467Z,35.57
2023-01-25T07:08:38.256Z,39.80
2023-01-25T07:11:07.049Z,38.27
2023-01-25T07:13:34.857Z,37.70
2023-01-25T07:16:06.632Z,40.63
2023-01-25T07:18:34.912Z,42.40
2023-01-25T07:21:09.864Z,38.73
2023-01-25T07:23:37.423Z,33.37
2023-01-25T07:26:05.332Z,39.57
2023-01-25T07:28:33.282Z,37.30
2023-01-25T07:31:07.589Z,37.47
2023-01-25T07:33:35.552Z,32.70
2023-01-25T07:36:04.055Z,35.47
2023-01-25T07:38:31.727Z,36.07
2023-01-25T07:40:59.272Z,33.90
2023-01-25T07:43:28.199Z,35.23
2023-01-25T07:46:00.834Z,36.47
2023-01-25T07:48:28.668Z,35.43
2023-01-25T07:51:02.638Z,40.27
2023-01-25T07:53:30.249Z,38.93
2023-01-25T07:55:59.271Z,37.03
2023-01-25T07:58:26.737Z,43.23
2023-01-25T08:00:54.297Z,37.33
2023-01-25T08:03:21.774Z,37.40
2023-01-25T08:05:49.573Z,47.70
2023-01-25T08:08:17.047Z,40.33
2023-01-25T08:10:44.656Z,46.30
2023-01-25T08:13:12.370Z,42.17
2023-01-25T08:15:39.929Z,37.40
2023-01-25T08:18:07.606Z,41.97
2023-01-25T08:20:35.434Z,41.33
2023-01-25T08:23:03.073Z,39.53
2023-01-25T08:25:30.525Z,34.40
2023-01-25T08:27:58.036Z,37.23
2023-01-25T08:30:25.555Z,39.93
2023-01-25T08:32:53.097Z,41.97
2023-01-25T08:35:20.564Z,35.87
2023-01-25T08:37:48.118Z,36.00
2023-01-25T08:40:15.606Z,42.33
2023-01-25T08:42:43.136Z,43.27
2023-01-25T08:45:11.349Z,44.83
2023-01-25T08:47:39.040Z,43.60
2023-01-25T08:50:07.343Z,44.07
2023-01-25T08:52:35.150Z,43.50
2023-01-25T08:55:02.743Z,42.90
2023-01-25T08:57:31.105Z,44.53
2023-01-25T08:59:58.631Z,41.47
2023-01-25T09:02:26.213Z,44.10
2023-01-25T09:04:53.694Z,41.57
2023-01-25T09:07:24.379Z,38.07
2023-01-25T09:09:52.020Z,37.93
2023-01-25T09:12:19.589Z,42.37
2023-01-25T09:14:47.165Z,38.17
2023-01-25T09:17:14.717Z,38.70
2023-01-25T09:19:42.431Z,41.47
2023-01-25T09:22:10.222Z,42.43
2023-01-25T09:24:37.943Z,40.77
2023-01-25T09:27:05.543Z,39.60
2023-01-25T09:29:33.130Z,39.67
2023-01-25T09:32:00.870Z,38.03
2023-01-25T09:34:28.576Z,42.10
2023-01-25T09:36:56.239Z,39.60
2023-01-25T09:39:23.874Z,42.67
2023-01-25T09:41:58.416Z,41.87
2023-01-25T09:44:47.118Z,47.83
2023-01-25T09:47:27.044Z,41.83
2023-01-25T09:49:54.586Z,49.20
2023-01-25T09:52:22.069Z,48.43
2023-01-25T09:54:49.720Z,44.73
2023-01-25T09:57:20.154Z,47.70
2023-01-25T09:59:49.216Z,45.07
2023-01-25T10:02:16.714Z,40.27
2023-01-25T10:04:44.995Z,46.63
2023-01-25T10:07:21.722Z,43.23
2023-01-25T10:09:55.745Z,43.80
2023-01-25T10:12:24.499Z,42.83
2023-01-25T10:14:52.670Z,43.40
2023-01-25T10:17:40.178Z,42.83
2023-01-25T10:20:23.217Z,40.40
2023-01-25T10:22:53.719Z,46.07
2023-01-25T10:25:32.078Z,48.03
2023-01-25T10:28:02.668Z,44.40
2023-01-25T10:30:35.463Z,44.87
2023-01-25T10:33:08.061Z,45.77
2023-01-25T10:35:42.216Z,46.53
2023-01-25T10:38:30.233Z,44.43
2023-01-25T10:41:01.530Z,48.73
2023-01-25T10:43:29.294Z,43.73
2023-01-25T10:45:56.783Z,47.20
2023-01-25T10:48:29.084Z,46.23
2023-01-25T10:50:58.092Z,48.27
2023-01-25T10:53:35.818Z,47.60
2023-01-25T10:56:12.265Z,53.63
2023-01-25T10:58:47.348Z,52.67
2023-01-25T11:01:35.378Z,53.03
2023-01-25T11:04:03.302Z,53.07
2023-01-25T11:06:32.278Z,55.50
2023-01-25T11:08:59.987Z,52.40
2023-01-25T11:11:39.893Z,51.17
2023-01-25T11:14:16.343Z,53.17
2023-01-25T11:16:46.036Z,46.40
2023-01-25T11:19:25.115Z,47.83
2023-01-25T11:21:53.749Z,50.87
2023-01-25T11:24:21.725Z,51.60
2023-01-25T11:26:49.231Z,48.87
2023-01-25T11:29:17.709Z,44.00
2023-01-25T11:31:46.999Z,49.93
2023-01-25T11:34:15.891Z,46.43
2023-01-25T11:36:46.481Z,42.17
2023-01-25T11:39:24.612Z,47.37
2023-01-25T11:42:12.907Z,48.97
2023-01-25T11:44:40.644Z,47.93
2023-01-25T11:47:17.572Z,46.97
2023-01-25T11:50:03.902Z,47.37
2023-01-25T11:52:31.409Z,49.60
2023-01-25T11:55:07.907Z,52.73
2023-01-25T11:57:35.392Z,50.90
2023-01-25T12:00:03.017Z,50.23
2023-01-25T12:02:33.482Z,48.67
2023-01-25T12:05:22.001Z,51.10
2023-01-25T12:08:04.815Z,49.53
2023-01-25T12:10:47.481Z,54.17
2023-01-25T12:13:15.028Z,52.03
2023-01-25T12:16:00.217Z,51.10
2023-01-25T12:18:36.818Z,59.27
2023-01-25T12:21:30.827Z,55.80
2023-01-25T12:24:05.008Z,50.00
2023-01-25T12:26:59.131Z,50.17
2023-01-25T12:29:30.322Z,51.30
2023-01-25T12:32:01.609Z,53.60
2023-01-25T12:34:39.367Z,48.17
2023-01-25T12:37:17.485Z,52.90
2023-01-25T12:39:56.578Z,48.97
2023-01-25T12:42:30.495Z,54.70
2023-01-25T12:45:20.016Z,55.17
2023-01-25T12:47:51.597Z,55.60
2023-01-25T12:50:31.136Z,50.40
2023-01-25T12:53:00.264Z,52.10
2023-01-25T12:55:28.170Z,53.90
2023-01-25T12:58:07.935Z,54.63
2023-01-25T13:00:58.612Z,54.80
2023-01-25T13:03:35.573Z,53.03
2023-01-25T13:06:10.388Z,52.33
2023-01-25T13:08:48.938Z,49.87
2023-01-25T13:11:35.444Z,55.80
2023-01-25T13:14:18.341Z,54.57
2023-01-25T13:16:46.483Z,52.87
2023-01-25T13:19:38.840Z,56.07
2023-01-25T13:22:06.355Z,54.23
2023-01-25T13:24:34.975Z,54.70
2023-01-25T13:27:04.470Z,52.83
2023-01-25T13:29:35.022Z,54.83
2023-01-25T13:32:03.627Z,54.83
2023-01-25T13:34:37.212Z,52.30
2023-01-25T13:37:25.020Z,50.37
2023-01-25T13:39:55.688Z,51.50
2023-01-25T13:42:24.767Z,52.17
2023-01-25T13:44:56.768Z,51.13
2023-01-25T13:47:25.924Z,51.20
2023-01-25T13:50:00.251Z,50.10
2023-01-25T13:52:29.026Z,48.70
2023-01-25T13:54:56.869Z,53.43
2023-01-25T13:57:26.132Z,51.50
2023-01-25T14:00:10.898Z,51.40
2023-01-25T14:02:39.737Z,54.70
2023-01-25T14:05:07.965Z,57.20
2023-01-25T14:07:36.469Z,59.20
2023-01-25T14:10:08.701Z,52.03
2023-01-25T14:12:43.227Z,50.37
2023-01-25T14:15:11.804Z,54.53
2023-01-25T14:17:39.239Z,52.03
2023-01-25T14:20:17.239Z,54.17
2023-01-25T14:22:48.082Z,53.90
2023-01-25T14:25:15.581Z,59.97
2023-01-25T14:27:44.865Z,51.97
2023-01-25T14:30:17.234Z,57.43
2023-01-25T14:32:44.753Z,60.23
2023-01-25T14:35:42.578Z,54.80
2023-01-25T14:38:25.683Z,57.40
2023-01-25T14:40:55.472Z,51.83
2023-01-25T14:43:23.460Z,54.83
2023-01-25T14:45:50.998Z,53.73
2023-01-25T14:48:33.991Z,65.30
2023-01-25T14:51:16.271Z,57.33
2023-01-25T14:53:45.788Z,58.63
2023-01-25T14:56:26.146Z,54.87
2023-01-25T14:58:59.449Z,54.63
2023-01-25T15:01:38.814Z,56.57
2023-01-25T15:04:11.109Z,57.43
2023-01-25T15:06:49.184Z,52.27
2023-01-25T15:09:37.067Z,56.50
2023-01-25T15:12:16.904Z,48.80
2023-01-25T15:14:51.442Z,52.23
2023-01-25T15:17:37.759Z,47.57
2023-01-25T15:20:06.127Z,52.80
2023-01-25T15:22:33.675Z,52.70
2023-01-25T15:25:01.335Z,52.23
2023-01-25T15:27:28.817Z,55.63
2023-01-25T15:29:56.479Z,59.47
2023-01-25T15:32:24.033Z,63.30
2023-01-25T15:34:51.557Z,56.17
2023-01-25T15:37:19.082Z,57.00
2023-01-25T15:39:46.660Z,51.93
2023-01-25T15:42:14.151Z,79.57
2023-01-25T15:44:41.674Z,58.00
2023-01-25T15:47:09.645Z,64.37
2023-01-25T15:49:39.157Z,62.33
2023-01-25T15:52:06.685Z,56.73
2023-01-25T15:54:34.153Z,65.17
2023-01-25T15:57:01.796Z,64.67
2023-01-25T15:59:29.392Z,74.30
2023-01-25T16:01:56.977Z,55.47
2023-01-25T16:04:24.427Z,54.30
2023-01-25T16:06:53.457Z,53.87
2023-01-25T16:09:24.800Z,54.20
2023-01-25T16:11:53.881Z,48.90
2023-01-25T16:14:21.890Z,53.03
2023-01-25T16:16:50.202Z,48.33
2023-01-25T16:19:22.114Z,52.37
2023-01-25T16:21:50.153Z,52.00
2023-01-25T16:24:18.278Z,51.23
2023-01-25T16:26:55.782Z,59.30
2023-01-25T16:29:23.449Z,54.60
2023-01-25T16:31:51.301Z,51.07
2023-01-25T16:34:19.110Z,54.23
2023-01-25T16:36:46.556Z,52.73
2023-01-25T16:39:16.631Z,56.20
2023-01-25T16:41:44.249Z,56.53
2023-01-25T16:44:11.763Z,59.43
2023-01-25T16:46:39.370Z,55.83
2023-01-25T16:49:07.185Z,62.53
2023-01-25T16:51:34.769Z,58.20
2023-01-25T16:54:02.365Z,53.37
2023-01-25T16:56:30.997Z,60.97
2023-01-25T16:59:00.908Z,71.17
2023-01-25T17:01:28.803Z,62.57
2023-01-25T17:03:56.664Z,63.27
2023-01-25T17:06:25.863Z,65.17
2023-01-25T17:08:55.444Z,67.57
2023-01-25T17:11:23.234Z,68.60
2023-01-25T17:13:51.729Z,68.10
2023-01-25T17:16:19.948Z,64.60
2023-01-25T17:18:47.884Z,77.87
2023-01-25T17:21:15.673Z,70.30
2023-01-25T17:23:43.417Z,67.70
2023-01-25T17:26:13.378Z,70.80
2023-01-25T17:28:42.586Z,73.93
2023-01-25T17:31:15.042Z,74.60
2023-01-25T17:33:42.718Z,71.47
2023-01-25T17:36:10.460Z,71.77
2023-01-25T17:38:37.966Z,69.83
2023-01-25T17:41:05.885Z,75.60
2023-01-25T17:43:34.586Z,69.33
2023-01-25T17:46:22.500Z,66.73
2023-01-25T17:48:50.098Z,75.30
2023-01-25T17:51:17.767Z,79.50
2023-01-25T17:53:45.445Z,85.30
2023-01-25T17:56:13.342Z,87.30
2023-01-25T17:58:41.332Z,91.60
2023-01-25T18:01:16.475Z,90.00
2023-01-25T18:03:44.635Z,90.13
2023-01-25T18:06:12.907Z,99.03
2023-01-25T18:08:41.614Z,98.57
2023-01-25T18:11:09.994Z,94.77
2023-01-25T18:13:41.256Z,95.10
2023-01-25T18:16:09.930Z,100.20
2023-01-25T18:18:38.416Z,92.10
2023-01-25T18:21:10.469Z,92.67
2023-01-25T18:23:38.888Z,96.20
2023-01-25T18:26:06.817Z,88.33
2023-01-25T18:28:34.371Z,93.60
2023-01-25T18:31:04.762Z,90.70
2023-01-25T18:33:32.487Z,104.13
2023-01-25T18:36:02.774Z,95.47
2023-01-25T18:38:31.312Z,96.20
2023-01-25T18:40:59.117Z,99.37
2023-01-25T18:43:26.688Z,98.73
2023-01-25T18:45:58.319Z,92.80
2023-01-25T18:48:26.505Z,99.67
2023-01-25T18:50:54.017Z,95.60
2023-01-25T18:53:21.640Z,101.87
2023-01-25T18:56:00.631Z,105.67
2023-01-25T18:58:29.942Z,104.30
2023-01-25T19:01:07.652Z,99.13
2023-01-25T19:03:35.313Z,102.03
2023-01-25T19:06:02.948Z,103.67
2023-01-25T19:08:30.971Z,103.10
2023-01-25T19:11:02.229Z,98.47
2023-01-25T19:13:32.204Z,97.60
2023-01-25T19:16:11.167Z,82.60
2023-01-25T19:18:39.609Z,99.27
2023-01-25T19:21:07.822Z,92.80
2023-01-25T19:23:39.561Z,91.30
2023-01-25T19:26:08.488Z,91.20
2023-01-25T19:28:35.958Z,87.17
2023-01-25T19:31:10.749Z,89.53
2023-01-25T19:33:38.388Z,83.90
2023-01-25T19:36:06.834Z,90.70
2023-01-25T19:38:37.827Z,91.83
2023-01-25T19:41:06.170Z,89.77
2023-01-25T19:43:33.964Z,93.10
2023-01-25T19:46:30.924Z,92.07
2023-01-25T19:48:59.480Z,85.80
2023-01-25T19:51:28.271Z,88.23
2023-01-25T19:53:59.755Z,92.37
2023-01-25T19:56:31.620Z,94.07
2023-01-25T19:58:59.388Z,92.90
2023-01-25T20:01:29.270Z,94.80
2023-01-25T20:03:57.897Z,100.60
2023-01-25T20:06:26.238Z,91.93
2023-01-25T20:08:54.209Z,91.43
2023-01-25T20:11:21.750Z,95.17
2023-01-25T20:13:51.154Z,95.50
2023-01-25T20:16:19.083Z,94.97
2023-01-25T20:18:47.303Z,95.33
2023-01-25T20:21:16.123Z,91.53
2023-01-25T20:23:44.572Z,100.97
2023-01-25T20:26:12.143Z,91.63
2023-01-25T20:28:39.916Z,90.73
2023-01-25T20:31:17.781Z,98.50
2023-01-25T20:33:45.535Z,94.80
2023-01-25T20:36:13.054Z,95.87
2023-01-25T20:38:40.715Z,89.13
2023-01-25T20:41:09.617Z,101.20
2023-01-25T20:43:37.148Z,87.63
2023-01-25T20:46:04.717Z,89.13
2023-01-25T20:48:32.269Z,83.93
2023-01-25T20:51:03.922Z,88.03
2023-01-25T20:53:32.030Z,85.63
2023-01-25T20:55:59.720Z,87.20
2023-01-25T20:58:27.575Z,78.67
2023-01-25T21:00:55.514Z,87.27
2023-01-25T21:03:23.546Z,82.73
2023-01-25T21:05:51.693Z,85.50
2023-01-25T21:08:19.796Z,84.43
2023-01-25T21:10:48.182Z,81.13
2023-01-25T21:13:15.760Z,85.23
2023-01-25T21:15:43.279Z,82.03
2023-01-25T21:18:10.893Z,85.70
2023-01-25T21:20:38.451Z,82.83
2023-01-25T21:23:06.014Z,88.27
2023-01-25T21:25:33.483Z,83.20
2023-01-25T21:28:01.024Z,84.30
2023-01-25T21:30:28.496Z,73.07
2023-01-25T21:32:56.027Z,74.67
2023-01-25T21:35:23.457Z,75.33
2023-01-25T21:37:50.989Z,78.20
2023-01-25T21:40:18.512Z,82.13
2023-01-25T21:42:47.603Z,79.37
2023-01-25T21:45:15.234Z,79.30
2023-01-25T21:47:42.750Z,75.00
2023-01-25T21:50:11.017Z,78.97
2023-01-25T21:52:38.683Z,85.67
2023-01-25T21:55:06.399Z,85.47
2023-01-25T21:57:33.908Z,84.07
2023-01-25T22:00:01.406Z,73.53
2023-01-25T22:02:28.918Z,73.93
2023-01-25T22:04:56.384Z,73.90
2023-01-25T22:07:23.980Z,75.60
2023-01-25T22:09:51.459Z,79.90
2023-01-25T22:12:18.973Z,78.30
2023-01-25T22:14:46.478Z,76.13
2023-01-25T22:17:14.173Z,72.67
2023-01-25T22:19:41.675Z,80.77
2023-01-25T22:22:09.173Z,85.47
2023-01-25T22:24:36.655Z,81.73
2023-01-25T22:27:27.136Z,84.70
2023-01-25T22:29:54.702Z,87.67
2023-01-25T22:32:22.254Z,92.10
2023-01-25T22:34:49.939Z,83.07
2023-01-25T22:37:17.471Z,85.70
2023-01-25T22:39:45.033Z,88.67
2023-01-25T22:42:12.596Z,87.67
2023-01-25T22:44:40.234Z,92.27
2023-01-25T22:47:07.704Z,88.30
2023-01-25T22:49:35.278Z,90.33
2023-01-25T22:52:02.698Z,92.27
2023-01-25T22:54:30.213Z,92.57
2023-01-25T22:56:57.703Z,86.60
2023-01-25T22:59:25.407Z,87.63
2023-01-25T23:01:52.874Z,87.10
2023-01-25T23:04:20.419Z,91.27
2023-01-25T23:06:47.949Z,88.03
2023-01-25T23:09:15.514Z,86.93
2023-01-25T23:11:42.995Z,96.63
2023-01-25T23:14:12.544Z,88.30
2023-01-25T23:16:40.060Z,86.97
2023-01-25T23:19:07.533Z,92.30
2023-01-25T23:21:35.066Z,88.30
2023-01-25T23:24:02.987Z,93.30
2023-01-25T23:26:32.027Z,87.03
2023-01-25T23:28:59.483Z,86.70
2023-01-25T23:31:27.117Z,87.73
2023-01-25T23:33:57.341Z,94.33
2023-01-25T23:36:26.312Z,86.90
2023-01-25T23:38:54.360Z,95.70
2023-01-25T23:41:22.739Z,91.97
2023-01-25T23:43:50.432Z,90.57
2023-01-25T23:46:18.256Z,86.53
2023-01-25T23:48:46.664Z,85.47
2023-01-25T23:51:14.897Z,91.90
2023-01-25T23:53:42.735Z,98.00
2023-01-25T23:56:14.510Z,91.03
2023-01-25T23:58:42.071Z,92.37
